createdAt,value
2019-05-29T00:00:53.454Z,67.94
2019-05-29T00:03:28.300Z,68.34
2019-05-29T00:06:02.942Z,68.13
2019-05-29T00:08:36.274Z,68.52
2019-05-29T00:11:10.709Z,68.31
2019-05-29T00:13:45.297Z,68.31
2019-05-29T00:16:45.739Z,68.61
2019-05-29T00:19:20.321Z,68.78
2019-05-29T00:21:55.273Z,68.56
2019-05-29T00:24:29.919Z,68.29
2019-05-29T00:27:05.410Z,68.68
2019-05-29T00:29:40.128Z,68.80
2019-05-29T00:32:15.142Z,68.25
2019-05-29T00:34:50.058Z,67.93
2019-05-29T00:37:26.275Z,67.92
2019-05-29T00:40:01.268Z,67.92
2019-05-29T00:42:36.309Z,68.33
2019-05-29T00:45:11.510Z,68.61
2019-05-29T00:47:46.280Z,68.64
2019-05-29T00:50:21.601Z,68.51
2019-05-29T00:52:56.595Z,68.72
2019-05-29T00:55:31.272Z,68.45
2019-05-29T00:58:07.126Z,68.35
2019-05-29T01:00:42.113Z,68.29
2019-05-29T01:03:17.896Z,68.31
2019-05-29T01:05:52.715Z,68.48
2019-05-29T01:08:26.102Z,68.48
2019-05-29T01:11:00.550Z,68.33
2019-05-29T01:13:36.296Z,68.55
2019-05-29T01:16:11.356Z,68.26
2019-05-29T01:18:45.948Z,68.93
2019-05-29T01:21:20.755Z,68.57
2019-05-29T01:23:56.278Z,68.15
2019-05-29T01:26:30.936Z,68.54
2019-05-29T01:29:05.644Z,68.11
2019-05-29T01:31:40.275Z,68.06
2019-05-29T01:34:15.678Z,68.01
2019-05-29T01:36:50.801Z,67.72
2019-05-29T01:39:25.270Z,67.70
2019-05-29T01:41:59.943Z,66.58
2019-05-29T01:44:35.926Z,66.58
2019-05-29T01:47:10.660Z,66.86
2019-05-29T01:49:45.247Z,67.14
2019-05-29T01:52:20.246Z,67.11
2019-05-29T01:54:54.943Z,67.39
2019-05-29T01:57:29.629Z,67.62
2019-05-29T02:00:04.275Z,67.65
2019-05-29T02:02:40.074Z,67.44
2019-05-29T02:05:15.771Z,67.92
2019-05-29T02:07:49.092Z,67.94
2019-05-29T02:10:24.334Z,68.32
2019-05-29T02:13:00.527Z,68.81
2019-05-29T02:15:37.270Z,69.15
2019-05-29T02:18:11.938Z,68.38
2019-05-29T02:20:45.269Z,68.92
2019-05-29T02:23:22.082Z,68.90
2019-05-29T02:25:56.731Z,68.90
2019-05-29T02:28:31.341Z,68.54
2019-05-29T02:31:06.274Z,68.32
2019-05-29T02:33:41.111Z,68.38
2019-05-29T02:36:15.741Z,68.02
2019-05-29T02:38:50.290Z,68.10
2019-05-29T02:41:26.207Z,67.64
2019-05-29T02:44:01.271Z,67.64
2019-05-29T02:46:36.125Z,67.57
2019-05-29T02:49:10.963Z,67.74
2019-05-29T02:51:44.270Z,67.72
2019-05-29T02:54:20.185Z,67.25
2019-05-29T02:56:54.961Z,67.25
2019-05-29T02:59:30.190Z,67.54
2019-05-29T03:02:06.022Z,67.54
2019-05-29T03:04:40.938Z,67.05
2019-05-29T03:07:15.756Z,67.12
2019-05-29T03:09:50.643Z,66.90
2019-05-29T03:12:26.950Z,66.90
2019-05-29T03:15:02.065Z,67.51
2019-05-29T03:17:36.764Z,67.34
2019-05-29T03:20:11.758Z,66.97
2019-05-29T03:22:46.275Z,66.99
2019-05-29T03:25:20.930Z,67.10
2019-05-29T03:30:41.294Z,66.11
2019-05-29T03:33:08.709Z,65.91
2019-05-29T03:35:48.050Z,65.42
2019-05-29T03:38:20.534Z,64.99
2019-05-29T03:40:57.295Z,64.84
2019-05-29T03:43:35.045Z,65.04
2019-05-29T03:46:26.545Z,64.48
2019-05-29T03:48:45.473Z,64.64
2019-05-29T03:51:20.263Z,64.18
2019-05-29T03:53:54.776Z,64.15
2019-05-29T03:56:30.712Z,64.77
2019-05-29T03:59:06.542Z,64.97
2019-05-29T04:01:47.272Z,64.80
2019-05-29T04:04:21.937Z,64.77
2019-05-29T04:06:55.278Z,64.77
2019-05-29T04:09:31.122Z,65.03
2019-05-29T04:12:07.308Z,65.03
2019-05-29T04:14:42.913Z,64.90
2019-05-29T04:17:16.574Z,65.13
2019-05-29T04:19:51.772Z,65.07
2019-05-29T04:22:32.905Z,65.33
2019-05-29T04:25:08.317Z,65.33
2019-05-29T04:27:44.700Z,65.08
2019-05-29T04:30:19.304Z,65.42
2019-05-29T04:32:53.785Z,65.25
2019-05-29T04:35:28.311Z,65.42
2019-05-29T04:38:03.275Z,64.58
2019-05-29T04:40:39.852Z,64.89
2019-05-29T04:43:14.928Z,65.24
2019-05-29T04:45:49.642Z,65.33
2019-05-29T04:48:24.310Z,65.31
2019-05-29T04:50:58.928Z,65.45
2019-05-29T04:53:35.497Z,65.15
2019-05-29T04:56:13.933Z,65.23
2019-05-29T04:58:48.307Z,65.18
2019-05-29T05:01:23.253Z,65.37
2019-05-29T05:03:57.764Z,65.44
2019-05-29T05:06:33.208Z,65.59
2019-05-29T05:09:09.261Z,65.59
2019-05-29T05:11:43.912Z,65.68
2019-05-29T05:14:18.292Z,65.55
2019-05-29T05:16:53.124Z,65.65
2019-05-29T05:19:27.664Z,65.56
2019-05-29T05:22:06.302Z,65.56
2019-05-29T05:24:43.943Z,65.23
2019-05-29T05:27:17.746Z,64.95
2019-05-29T05:29:52.648Z,64.95
2019-05-29T05:32:27.293Z,64.83
2019-05-29T05:35:02.283Z,65.17
2019-05-29T05:37:37.103Z,64.95
2019-05-29T05:40:11.947Z,64.07
2019-05-29T05:42:46.945Z,64.07
2019-05-29T05:45:23.148Z,64.36
2019-05-29T05:47:58.220Z,63.17
2019-05-29T05:50:33.319Z,63.17
2019-05-29T05:53:08.282Z,63.03
2019-05-29T05:55:42.932Z,63.51
2019-05-29T05:58:17.619Z,63.51
2019-05-29T06:00:53.318Z,63.55
2019-05-29T06:03:27.935Z,61.46
2019-05-29T06:06:02.681Z,61.85
2019-05-29T06:08:38.094Z,61.66
2019-05-29T06:11:12.671Z,61.66
2019-05-29T06:13:47.166Z,61.66
2019-05-29T06:16:21.672Z,61.94
2019-05-29T06:18:56.272Z,62.14
2019-05-29T06:21:30.866Z,61.50
2019-05-29T06:24:04.393Z,61.38
2019-05-29T06:26:39.054Z,61.88
2019-05-29T06:29:13.681Z,61.41
2019-05-29T06:31:48.339Z,61.41
2019-05-29T06:34:23.292Z,59.36
2019-05-29T06:36:59.277Z,60.29
2019-05-29T06:39:35.325Z,61.40
2019-05-29T06:42:10.328Z,61.69
2019-05-29T06:44:48.628Z,60.40
2019-05-29T06:47:21.902Z,59.39
2019-05-29T06:49:56.550Z,60.12
2019-05-29T06:52:31.321Z,59.50
2019-05-29T06:55:07.274Z,58.57
2019-05-29T06:57:42.647Z,58.00
2019-05-29T07:00:34.377Z,57.69
2019-05-29T07:02:53.242Z,58.35
2019-05-29T07:05:27.718Z,57.57
2019-05-29T07:08:16.481Z,59.05
2019-05-29T07:10:38.522Z,56.90
2019-05-29T07:13:13.394Z,58.17
2019-05-29T07:15:48.279Z,58.06
2019-05-29T07:18:23.271Z,57.65
2019-05-29T07:20:57.951Z,56.81
2019-05-29T07:23:32.654Z,57.70
2019-05-29T07:26:07.307Z,56.60
2019-05-29T07:29:03.081Z,55.08
2019-05-29T07:31:19.820Z,54.05
2019-05-29T07:33:55.953Z,55.69
2019-05-29T07:36:30.941Z,56.05
2019-05-29T07:39:05.286Z,55.28
2019-05-29T07:41:39.692Z,52.45
2019-05-29T07:44:13.068Z,52.45
2019-05-29T07:46:48.854Z,52.50
2019-05-29T07:49:38.070Z,52.02
2019-05-29T07:52:01.264Z,52.02
2019-05-29T07:54:37.283Z,52.20
2019-05-29T07:57:11.951Z,51.37
2019-05-29T07:59:46.770Z,51.04
2019-05-29T08:02:21.947Z,49.99
2019-05-29T08:04:56.745Z,50.46
2019-05-29T08:07:31.673Z,51.25
2019-05-29T08:10:08.284Z,51.25
2019-05-29T08:12:49.985Z,49.02
2019-05-29T08:15:18.280Z,49.60
2019-05-29T08:17:52.886Z,50.24
2019-05-29T08:20:27.298Z,50.24
2019-05-29T08:23:02.285Z,49.77
2019-05-29T08:25:37.109Z,48.47
2019-05-29T08:28:11.940Z,48.13
2019-05-29T08:30:50.311Z,47.71
2019-05-29T08:33:21.331Z,47.19
2019-05-29T08:36:00.114Z,46.07
2019-05-29T08:38:33.184Z,45.71
2019-05-29T08:41:07.677Z,45.84
2019-05-29T08:43:42.525Z,45.84
2019-05-29T08:46:17.070Z,46.69
2019-05-29T08:48:52.229Z,46.50
2019-05-29T08:51:26.887Z,46.08
2019-05-29T08:54:01.336Z,46.08
2019-05-29T08:56:35.764Z,46.29
2019-05-29T08:59:08.666Z,47.63
2019-05-29T09:01:44.693Z,47.58
2019-05-29T09:04:17.912Z,47.88
2019-05-29T09:06:53.382Z,47.38
2019-05-29T09:09:28.102Z,49.15
2019-05-29T09:12:02.575Z,47.76
2019-05-29T09:14:36.953Z,47.76
2019-05-29T09:17:11.979Z,47.14
2019-05-29T09:19:46.527Z,45.33
2019-05-29T09:22:21.125Z,44.52
2019-05-29T09:24:55.655Z,45.22
2019-05-29T09:27:30.094Z,45.22
2019-05-29T09:30:04.726Z,43.07
2019-05-29T09:32:50.003Z,44.77
2019-05-29T09:35:17.452Z,44.95
2019-05-29T09:37:52.291Z,44.95
2019-05-29T09:40:27.668Z,47.27
2019-05-29T09:43:03.283Z,47.27
2019-05-29T09:45:37.902Z,47.82
2019-05-29T09:48:12.664Z,47.96
2019-05-29T09:50:50.565Z,47.96
2019-05-29T09:53:23.261Z,49.28
2019-05-29T09:55:59.068Z,47.67
2019-05-29T09:58:34.101Z,46.44
2019-05-29T10:01:21.732Z,46.42
2019-05-29T10:03:45.743Z,47.67
2019-05-29T10:06:18.701Z,48.47
2019-05-29T10:08:54.108Z,48.15
2019-05-29T10:11:28.999Z,47.33
2019-05-29T10:14:27.602Z,46.58
2019-05-29T10:17:09.247Z,44.26
2019-05-29T10:19:39.651Z,44.73
2019-05-29T10:22:14.130Z,44.60
2019-05-29T10:24:48.761Z,45.16
2019-05-29T10:27:23.748Z,45.16
2019-05-29T10:29:58.398Z,45.53
2019-05-29T10:32:32.978Z,45.53
2019-05-29T10:35:07.948Z,48.46
2019-05-29T10:37:42.764Z,48.46
2019-05-29T10:40:17.752Z,47.83
2019-05-29T10:42:51.563Z,47.25
2019-05-29T10:45:26.289Z,45.90
2019-05-29T10:48:00.915Z,43.86
2019-05-29T10:50:35.674Z,44.37
2019-05-29T10:53:10.271Z,40.83
2019-05-29T10:55:46.390Z,38.05
2019-05-29T10:58:20.947Z,38.05
2019-05-29T11:00:55.611Z,42.89
2019-05-29T11:03:30.112Z,42.89
2019-05-29T11:06:04.716Z,42.13
2019-05-29T11:08:38.953Z,42.13
2019-05-29T11:11:13.340Z,42.94
2019-05-29T11:13:48.650Z,41.28
2019-05-29T11:16:21.790Z,40.77
2019-05-29T11:18:55.953Z,39.77
2019-05-29T11:21:30.463Z,36.94
2019-05-29T11:24:04.951Z,34.82
2019-05-29T11:26:39.285Z,33.51
2019-05-29T11:29:13.936Z,31.30
2019-05-29T11:31:48.668Z,32.83
2019-05-29T11:34:23.076Z,32.83
2019-05-29T11:36:58.353Z,33.65
2019-05-29T11:39:32.946Z,33.65
2019-05-29T11:42:07.563Z,32.51
2019-05-29T11:44:42.090Z,30.66
2019-05-29T11:47:16.707Z,31.93
2019-05-29T11:49:50.884Z,31.93
2019-05-29T11:52:41.555Z,32.13
2019-05-29T11:55:07.061Z,32.75
2019-05-29T11:57:39.660Z,34.70
2019-05-29T12:00:20.387Z,34.70
2019-05-29T12:02:51.263Z,35.92
2019-05-29T12:05:26.324Z,34.80
2019-05-29T12:08:01.925Z,34.38
2019-05-29T12:10:36.862Z,33.35
2019-05-29T12:13:11.306Z,31.28
2019-05-29T12:15:45.778Z,31.35
2019-05-29T12:18:24.335Z,33.14
2019-05-29T12:20:56.324Z,28.57
2019-05-29T12:23:31.095Z,26.75
2019-05-29T12:26:21.176Z,24.71
2019-05-29T12:28:42.095Z,23.47
2019-05-29T12:31:16.719Z,22.53
2019-05-29T12:33:51.189Z,22.53
2019-05-29T12:36:25.706Z,22.32
2019-05-29T12:38:59.634Z,23.36
2019-05-29T12:41:33.681Z,25.69
2019-05-29T12:44:06.856Z,26.46
2019-05-29T12:46:39.646Z,25.45
2019-05-29T12:49:13.944Z,27.58
2019-05-29T12:51:48.272Z,28.15
2019-05-29T12:54:22.868Z,27.80
2019-05-29T12:56:57.859Z,28.48
2019-05-29T12:59:32.615Z,29.61
2019-05-29T13:02:07.281Z,29.61
2019-05-29T13:05:06.408Z,30.59
2019-05-29T13:07:17.948Z,30.22
2019-05-29T13:09:52.274Z,30.31
2019-05-29T13:12:26.800Z,25.16
2019-05-29T13:15:00.735Z,22.66
2019-05-29T13:17:36.690Z,22.56
2019-05-29T13:20:21.238Z,21.95
2019-05-29T13:22:48.132Z,21.29
2019-05-29T13:25:22.749Z,21.55
2019-05-29T13:27:59.330Z,21.33
2019-05-29T13:30:33.346Z,19.44
2019-05-29T13:33:09.045Z,22.35
2019-05-29T13:35:45.634Z,23.73
2019-05-29T13:38:20.177Z,25.03
2019-05-29T13:40:56.128Z,27.61
2019-05-29T13:43:30.944Z,27.61
2019-05-29T13:46:05.643Z,24.81
2019-05-29T13:48:40.094Z,24.81
2019-05-29T13:51:14.330Z,22.58
2019-05-29T13:54:02.429Z,20.91
2019-05-29T13:56:24.955Z,18.61
2019-05-29T13:58:59.868Z,21.08
2019-05-29T14:01:34.559Z,24.27
2019-05-29T14:04:10.779Z,25.25
2019-05-29T14:06:43.791Z,25.25
2019-05-29T14:09:17.940Z,25.14
2019-05-29T14:11:52.281Z,25.14
2019-05-29T14:14:26.754Z,23.79
2019-05-29T14:17:00.389Z,22.58
2019-05-29T14:19:34.860Z,22.58
2019-05-29T14:22:09.359Z,22.06
2019-05-29T14:24:43.956Z,24.22
2019-05-29T14:27:18.653Z,26.80
2019-05-29T14:29:51.860Z,23.25
2019-05-29T14:34:24.679Z,22.19
2019-05-29T14:36:59.280Z,20.42
2019-05-29T14:39:33.695Z,20.42
2019-05-29T14:42:08.244Z,22.63
2019-05-29T14:44:42.746Z,23.10
2019-05-29T14:47:17.278Z,25.04
2019-05-29T14:49:51.686Z,26.92
2019-05-29T14:52:24.689Z,26.01
2019-05-29T14:54:58.943Z,25.45
2019-05-29T14:57:32.015Z,24.61
2019-05-29T15:00:18.813Z,25.62
2019-05-29T15:02:44.795Z,25.69
2019-05-29T15:05:21.304Z,25.71
2019-05-29T15:07:56.303Z,27.88
2019-05-29T15:10:31.276Z,28.30
2019-05-29T15:13:06.653Z,28.30
2019-05-29T15:15:39.777Z,27.65
2019-05-29T15:18:18.550Z,27.65
2019-05-29T15:20:49.949Z,28.69
2019-05-29T15:23:24.289Z,28.38
2019-05-29T15:26:00.997Z,28.58
2019-05-29T15:28:35.931Z,29.25
2019-05-29T15:31:10.532Z,30.47
2019-05-29T15:33:45.338Z,30.61
2019-05-29T15:36:19.723Z,31.47
2019-05-29T15:38:54.257Z,30.96
2019-05-29T15:41:29.164Z,30.90
2019-05-29T15:44:03.864Z,30.98
2019-05-29T15:46:38.685Z,30.98
2019-05-29T15:49:13.399Z,31.10
2019-05-29T15:51:48.287Z,31.15
2019-05-29T15:54:23.707Z,31.39
2019-05-29T15:56:58.285Z,31.71
2019-05-29T15:59:33.879Z,30.62
2019-05-29T16:04:52.792Z,32.90
2019-05-29T16:07:35.359Z,33.24
2019-05-29T16:10:13.073Z,33.24
2019-05-29T16:12:46.865Z,34.28
2019-05-29T16:15:20.493Z,34.28
2019-05-29T16:17:54.682Z,33.66
2019-05-29T16:20:29.290Z,35.54
2019-05-29T16:23:05.778Z,35.54
2019-05-29T16:26:07.123Z,35.86
2019-05-29T16:28:42.308Z,35.92
2019-05-29T16:31:17.156Z,36.97
2019-05-29T16:33:51.765Z,36.06
2019-05-29T16:36:26.451Z,37.03
2019-05-29T16:39:01.342Z,38.04
2019-05-29T16:41:37.711Z,37.37
2019-05-29T16:44:11.996Z,37.72
2019-05-29T16:46:46.952Z,36.83
2019-05-29T16:49:21.445Z,36.98
2019-05-29T16:51:57.173Z,36.76
2019-05-29T16:54:31.753Z,36.61
2019-05-29T16:57:05.098Z,37.33
2019-05-29T16:59:39.668Z,37.61
2019-05-29T17:02:15.510Z,37.61
2019-05-29T17:04:50.288Z,38.15
2019-05-29T17:07:25.858Z,38.67
2019-05-29T17:10:00.370Z,38.80
2019-05-29T17:12:35.291Z,37.44
2019-05-29T17:15:12.435Z,37.49
2019-05-29T17:17:47.300Z,37.49
2019-05-29T17:20:40.748Z,37.98
2019-05-29T17:23:18.719Z,37.38
2019-05-29T17:26:09.229Z,38.31
2019-05-29T17:28:29.353Z,38.69
2019-05-29T17:31:04.291Z,39.19
2019-05-29T17:33:39.283Z,38.73
2019-05-29T17:36:14.911Z,38.69
2019-05-29T17:38:49.973Z,36.20
2019-05-29T17:41:25.342Z,36.20
2019-05-29T17:43:59.951Z,35.26
2019-05-29T17:46:35.624Z,36.24
2019-05-29T17:49:10.371Z,36.24
2019-05-29T17:51:45.007Z,36.84
2019-05-29T17:54:19.852Z,37.17
2019-05-29T17:56:54.659Z,36.78
2019-05-29T17:59:31.307Z,37.19
2019-05-29T18:02:08.747Z,37.16
2019-05-29T18:04:43.300Z,37.37
2019-05-29T18:07:18.412Z,37.55
2019-05-29T18:09:53.292Z,38.05
2019-05-29T18:12:29.115Z,36.41
2019-05-29T18:15:05.704Z,37.33
2019-05-29T18:17:44.238Z,37.51
2019-05-29T18:20:19.759Z,37.83
2019-05-29T18:22:54.144Z,38.00
2019-05-29T18:25:28.715Z,38.45
2019-05-29T18:28:03.082Z,38.25
2019-05-29T18:30:37.770Z,39.06
2019-05-29T18:33:10.878Z,39.17
2019-05-29T18:35:45.278Z,39.03
2019-05-29T18:38:20.229Z,39.00
2019-05-29T18:40:54.898Z,39.34
2019-05-29T18:43:28.732Z,39.51
2019-05-29T18:46:03.121Z,39.23
2019-05-29T18:48:37.939Z,39.40
2019-05-29T18:51:12.335Z,40.09
2019-05-29T18:53:46.949Z,40.61
2019-05-29T18:56:21.871Z,40.26
2019-05-29T18:58:56.362Z,40.12
2019-05-29T19:01:31.744Z,40.94
2019-05-29T19:04:04.799Z,40.75
2019-05-29T19:06:39.138Z,40.75
2019-05-29T19:09:13.586Z,41.02
2019-05-29T19:11:47.938Z,41.02
2019-05-29T19:14:22.375Z,41.33
2019-05-29T19:16:57.950Z,41.58
2019-05-29T19:19:33.289Z,41.96
2019-05-29T19:22:07.876Z,41.96
2019-05-29T19:24:40.867Z,42.32
2019-05-29T19:27:30.052Z,43.03
2019-05-29T19:29:51.289Z,43.50
2019-05-29T19:32:27.153Z,44.32
2019-05-29T19:35:01.802Z,44.61
2019-05-29T19:37:37.938Z,45.21
2019-05-29T19:40:13.365Z,45.79
2019-05-29T19:42:47.960Z,45.79
2019-05-29T19:45:21.286Z,46.09
2019-05-29T19:47:55.553Z,46.19
2019-05-29T19:50:30.880Z,46.44
2019-05-29T19:53:04.049Z,46.44
2019-05-29T19:55:38.275Z,46.96
2019-05-29T19:58:12.784Z,46.83
2019-05-29T20:00:45.890Z,47.09
2019-05-29T20:03:21.329Z,47.41
2019-05-29T20:05:55.788Z,48.17
2019-05-29T20:08:32.588Z,47.94
2019-05-29T20:11:04.712Z,48.11
2019-05-29T20:13:38.954Z,48.40
2019-05-29T20:16:12.028Z,48.32
2019-05-29T20:18:44.871Z,48.27
2019-05-29T20:21:19.121Z,48.49
2019-05-29T20:23:54.662Z,49.05
2019-05-29T20:26:29.180Z,49.05
2019-05-29T20:29:04.767Z,49.11
2019-05-29T20:31:38.733Z,49.11
2019-05-29T20:34:13.948Z,48.59
2019-05-29T20:36:47.039Z,48.59
2019-05-29T20:39:20.289Z,49.31
2019-05-29T20:41:54.644Z,49.95
2019-05-29T20:44:30.520Z,49.95
2019-05-29T20:47:04.954Z,50.10
2019-05-29T20:49:40.140Z,50.48
2019-05-29T20:52:15.116Z,50.68
2019-05-29T20:54:49.710Z,49.57
2019-05-29T20:57:23.705Z,49.57
2019-05-29T20:59:57.957Z,49.68
2019-05-29T21:02:32.305Z,50.58
2019-05-29T21:05:07.364Z,50.35
2019-05-29T21:07:42.976Z,50.53
2019-05-29T21:10:18.789Z,50.74
2019-05-29T21:12:52.003Z,50.74
2019-05-29T21:15:24.874Z,50.73
2019-05-29T21:17:59.286Z,50.45
2019-05-29T21:20:34.179Z,50.38
2019-05-29T21:23:08.717Z,50.94
2019-05-29T21:25:43.094Z,51.12
2019-05-29T21:28:17.681Z,51.23
2019-05-29T21:30:51.947Z,51.23
2019-05-29T21:33:26.348Z,50.88
2019-05-29T21:36:00.897Z,50.88
2019-05-29T21:38:36.106Z,50.91
2019-05-29T21:41:10.660Z,50.71
2019-05-29T21:43:44.950Z,51.04
2019-05-29T21:46:19.287Z,51.04
2019-05-29T21:48:53.768Z,50.91
2019-05-29T21:51:28.294Z,50.94
2019-05-29T21:54:02.717Z,50.81
2019-05-29T21:59:20.337Z,51.28
2019-05-29T22:01:54.958Z,51.83
2019-05-29T22:04:28.951Z,52.22
2019-05-29T22:07:03.685Z,52.02
2019-05-29T22:09:38.104Z,52.67
2019-05-29T22:12:12.644Z,52.37
2019-05-29T22:14:47.269Z,52.37
2019-05-29T22:17:22.280Z,52.30
2019-05-29T22:21:55.716Z,51.71
2019-05-29T22:24:30.137Z,52.28
2019-05-29T22:27:04.981Z,53.11
2019-05-29T22:29:39.715Z,52.99
2019-05-29T22:32:14.286Z,53.28
2019-05-29T22:34:48.693Z,53.42
2019-05-29T22:37:23.425Z,53.93
2019-05-29T22:39:59.580Z,54.00
2019-05-29T22:42:33.931Z,54.59
2019-05-29T22:45:08.338Z,54.30
2019-05-29T22:47:43.397Z,54.30
2019-05-29T22:50:23.499Z,54.46
2019-05-29T22:52:58.315Z,54.24
2019-05-29T22:55:32.710Z,54.14
2019-05-29T22:58:07.122Z,53.90
2019-05-29T23:00:41.694Z,53.94
2019-05-29T23:03:16.089Z,54.57
2019-05-29T23:05:50.415Z,54.41
2019-05-29T23:08:24.891Z,54.41
2019-05-29T23:10:58.335Z,54.15
2019-05-29T23:13:32.302Z,54.33
2019-05-29T23:16:06.788Z,54.33
2019-05-29T23:18:41.008Z,54.54
2019-05-29T23:21:15.261Z,54.11
2019-05-29T23:23:49.743Z,54.33
2019-05-29T23:26:24.111Z,54.79
2019-05-29T23:31:44.772Z,55.28
2019-05-29T23:34:19.247Z,55.67
2019-05-29T23:36:55.048Z,55.38
2019-05-29T23:39:29.654Z,55.41
2019-05-29T23:42:04.279Z,55.25
2019-05-29T23:44:38.689Z,55.35
2019-05-29T23:47:12.951Z,55.31
2019-05-29T23:49:47.335Z,55.62
2019-05-29T23:52:21.786Z,55.68
2019-05-29T23:54:55.677Z,55.67
2019-05-29T23:57:29.948Z,55.35
